createdAt,value
2023-04-03T00:00:25.860Z,35.01
2023-04-03T00:02:52.568Z,35.11
2023-04-03T00:05:19.172Z,34.95
2023-04-03T00:07:45.705Z,35.10
2023-04-03T00:10:12.792Z,35.22
2023-04-03T00:12:39.379Z,35.17
2023-04-03T00:15:06.385Z,34.98
2023-04-03T00:17:33.085Z,35.00
2023-04-03T00:19:59.884Z,35.24
2023-04-03T00:22:27.638Z,35.12
2023-04-03T00:24:54.206Z,34.93
2023-04-03T00:27:20.809Z,34.94
2023-04-03T00:29:47.400Z,34.60
2023-04-03T00:32:14.071Z,34.72
2023-04-03T00:34:40.675Z,34.91
2023-04-03T00:37:07.202Z,34.54
2023-04-03T00:39:33.745Z,34.84
2023-04-03T00:42:00.271Z,34.82
2023-04-03T00:44:36.096Z,35.01
2023-04-03T00:47:03.215Z,34.66
2023-04-03T00:49:29.748Z,34.66
2023-04-03T00:51:56.595Z,35.03
2023-04-03T00:54:23.087Z,34.92
2023-04-03T00:56:50.315Z,34.87
2023-04-03T00:59:22.223Z,35.12
2023-04-03T01:01:49.242Z,35.04
2023-04-03T01:04:32.278Z,34.90
2023-04-03T01:07:01.724Z,34.86
2023-04-03T01:09:28.841Z,34.69
2023-04-03T01:11:55.659Z,34.88
2023-04-03T01:14:22.427Z,34.72
2023-04-03T01:16:55.545Z,34.83
2023-04-03T01:19:22.455Z,35.00
2023-04-03T01:21:55.252Z,34.95
2023-04-03T01:24:31.107Z,34.68
2023-04-03T01:26:57.653Z,34.70
2023-04-03T01:29:24.214Z,34.84
2023-04-03T01:31:58.367Z,34.64
2023-04-03T01:34:25.375Z,34.92
2023-04-03T01:36:53.044Z,34.90
2023-04-03T01:39:20.984Z,34.95
2023-04-03T01:41:48.030Z,35.03
2023-04-03T01:44:21.294Z,34.89
2023-04-03T01:46:48.661Z,34.84
2023-04-03T01:49:15.338Z,34.85
2023-04-03T01:51:41.887Z,34.97
2023-04-03T01:54:08.720Z,34.93
2023-04-03T01:56:35.428Z,34.80
2023-04-03T01:59:02.034Z,35.03
2023-04-03T02:01:28.899Z,35.02
2023-04-03T02:03:55.667Z,34.88
2023-04-03T02:06:22.255Z,35.05
2023-04-03T02:08:48.804Z,34.75
2023-04-03T02:11:15.349Z,34.96
2023-04-03T02:13:41.915Z,35.09
2023-04-03T02:16:10.785Z,34.89
2023-04-03T02:18:37.498Z,34.98
2023-04-03T02:21:04.181Z,34.94
2023-04-03T02:23:30.864Z,34.70
2023-04-03T02:26:11.115Z,34.95
2023-04-03T02:28:37.908Z,34.65
2023-04-03T02:31:04.870Z,34.84
2023-04-03T02:33:31.846Z,34.91
2023-04-03T02:35:58.826Z,34.94
2023-04-03T02:38:25.389Z,35.15
2023-04-03T02:40:52.902Z,34.95
2023-04-03T02:43:19.499Z,34.96
2023-04-03T02:45:46.342Z,34.94
2023-04-03T02:48:13.306Z,34.85
2023-04-03T02:50:39.885Z,35.06
2023-04-03T02:53:06.464Z,35.15
2023-04-03T02:55:33.219Z,34.84
2023-04-03T02:57:59.891Z,35.19
2023-04-03T03:00:26.572Z,34.94
2023-04-03T03:02:53.211Z,35.48
2023-04-03T03:05:20.048Z,35.14
2023-04-03T03:07:46.719Z,34.92
2023-04-03T03:10:13.276Z,35.20
2023-04-03T03:12:39.794Z,35.14
2023-04-03T03:15:08.460Z,35.19
2023-04-03T03:17:35.316Z,35.00
2023-04-03T03:20:01.903Z,34.90
2023-04-03T03:22:31.081Z,35.07
2023-04-03T03:24:58.353Z,35.13
2023-04-03T03:27:25.616Z,35.26
2023-04-03T03:29:52.191Z,34.98
2023-04-03T03:32:18.973Z,34.98
2023-04-03T03:34:45.687Z,34.64
2023-04-03T03:37:12.234Z,35.01
2023-04-03T03:39:38.872Z,34.98
2023-04-03T03:42:05.485Z,34.75
2023-04-03T03:44:32.161Z,34.54
2023-04-03T03:46:58.894Z,34.53
2023-04-03T03:49:25.768Z,34.81
2023-04-03T03:51:52.739Z,34.74
2023-04-03T03:54:19.419Z,34.75
2023-04-03T03:56:46.127Z,35.05
2023-04-03T03:59:13.528Z,34.95
2023-04-03T04:01:40.944Z,34.86
2023-04-03T04:04:08.225Z,34.83
2023-04-03T04:06:34.949Z,35.03
2023-04-03T04:09:04.653Z,34.96
2023-04-03T04:11:31.362Z,34.97
2023-04-03T04:13:58.081Z,35.18
2023-04-03T04:16:27.508Z,34.80
2023-04-03T04:18:56.067Z,34.78
2023-04-03T04:21:23.841Z,35.13
2023-04-03T04:23:52.717Z,35.05
2023-04-03T04:26:21.162Z,34.92
2023-04-03T04:28:47.993Z,34.97
2023-04-03T04:31:15.349Z,34.81
2023-04-03T04:33:41.998Z,34.92
2023-04-03T04:36:11.781Z,35.20
2023-04-03T04:38:39.419Z,35.23
2023-04-03T04:41:06.055Z,34.89
2023-04-03T04:43:32.861Z,35.19
2023-04-03T04:46:04.149Z,34.77
2023-04-03T04:48:34.263Z,34.59
2023-04-03T04:51:01.537Z,34.37
2023-04-03T04:53:28.798Z,34.31
2023-04-03T04:55:55.596Z,34.13
2023-04-03T04:58:22.517Z,33.83
2023-04-03T05:00:49.167Z,33.84
2023-04-03T05:03:16.482Z,34.13
2023-04-03T05:05:43.990Z,34.09
2023-04-03T05:08:10.867Z,34.29
2023-04-03T05:10:41.751Z,34.32
2023-04-03T05:13:08.515Z,34.38
2023-04-03T05:15:35.503Z,34.08
2023-04-03T05:18:03.378Z,34.32
2023-04-03T05:20:30.186Z,34.20
2023-04-03T05:22:56.806Z,34.23
2023-04-03T05:25:23.361Z,34.12
2023-04-03T05:27:53.344Z,34.48
2023-04-03T05:30:20.117Z,34.40
2023-04-03T05:32:47.632Z,34.21
2023-04-03T05:35:30.065Z,34.01
2023-04-03T05:37:59.251Z,33.77
2023-04-03T05:40:26.592Z,32.39
2023-04-03T05:42:55.794Z,30.92
2023-04-03T05:45:24.705Z,31.09
2023-04-03T05:47:51.695Z,31.53
2023-04-03T05:50:18.367Z,31.82
2023-04-03T05:52:45.754Z,31.99
2023-04-03T05:55:13.436Z,32.24
2023-04-03T05:57:40.429Z,32.47
2023-04-03T06:00:08.195Z,32.46
2023-04-03T06:02:40.863Z,32.52
2023-04-03T06:05:12.523Z,32.59
2023-04-03T06:07:39.133Z,32.55
2023-04-03T06:10:06.461Z,32.82
2023-04-03T06:12:33.179Z,32.93
2023-04-03T06:14:59.824Z,32.88
2023-04-03T06:17:28.051Z,32.90
2023-04-03T06:19:54.775Z,32.94
2023-04-03T06:22:22.221Z,33.24
2023-04-03T06:24:48.798Z,33.16
2023-04-03T06:27:15.731Z,33.10
2023-04-03T06:29:42.394Z,33.05
2023-04-03T06:32:08.958Z,32.93
2023-04-03T06:34:36.348Z,33.03
2023-04-03T06:37:03.162Z,33.20
2023-04-03T06:39:30.308Z,33.19
2023-04-03T06:41:56.898Z,33.23
2023-04-03T06:44:35.531Z,33.22
2023-04-03T06:47:02.119Z,33.12
2023-04-03T06:49:29.848Z,33.27
2023-04-03T06:51:57.179Z,32.96
2023-04-03T06:54:24.001Z,33.32
2023-04-03T06:56:51.337Z,33.00
2023-04-03T06:59:18.057Z,33.10
2023-04-03T07:01:44.839Z,33.13
2023-04-03T07:04:11.807Z,33.19
2023-04-03T07:06:38.454Z,33.44
2023-04-03T07:09:05.052Z,33.29
2023-04-03T07:11:31.641Z,33.31
2023-04-03T07:13:58.591Z,33.31
2023-04-03T07:16:25.305Z,33.34
2023-04-03T07:18:52.089Z,33.40
2023-04-03T07:21:18.669Z,33.28
2023-04-03T07:23:46.053Z,33.37
2023-04-03T07:26:12.694Z,33.32
2023-04-03T07:28:41.136Z,32.98
2023-04-03T07:31:09.692Z,33.08
2023-04-03T07:33:36.768Z,32.95
2023-04-03T07:36:03.738Z,32.79
2023-04-03T07:38:30.401Z,32.72
2023-04-03T07:40:57.011Z,32.65
2023-04-03T07:43:25.704Z,32.59
2023-04-03T07:45:52.497Z,32.30
2023-04-03T07:48:20.143Z,32.62
2023-04-03T07:50:47.261Z,32.76
2023-04-03T07:53:13.921Z,32.53
2023-04-03T07:55:44.098Z,32.89
2023-04-03T07:58:15.666Z,32.79
2023-04-03T08:00:42.232Z,32.62
2023-04-03T08:03:11.371Z,32.47
2023-04-03T08:05:40.684Z,32.59
2023-04-03T08:08:07.889Z,32.43
2023-04-03T08:10:35.035Z,32.46
2023-04-03T08:13:02.005Z,32.66
2023-04-03T08:15:28.780Z,32.72
2023-04-03T08:17:55.840Z,32.72
2023-04-03T08:20:22.703Z,32.83
2023-04-03T08:22:49.376Z,32.96
2023-04-03T08:25:16.197Z,33.06
2023-04-03T08:27:42.777Z,33.05
2023-04-03T08:30:09.991Z,33.10
2023-04-03T08:32:37.459Z,33.15
2023-04-03T08:35:07.338Z,32.89
2023-04-03T08:37:37.047Z,33.34
2023-04-03T08:40:05.473Z,33.24
2023-04-03T08:42:45.680Z,29.49
2023-04-03T08:45:26.296Z,28.90
2023-04-03T08:47:57.527Z,28.80
2023-04-03T08:50:36.059Z,28.93
2023-04-03T08:53:03.100Z,29.47
2023-04-03T08:55:32.780Z,29.56
2023-04-03T08:58:03.280Z,29.65
2023-04-03T09:00:35.276Z,29.78
2023-04-03T09:03:01.955Z,30.14
2023-04-03T09:06:04.796Z,30.27
2023-04-03T09:08:33.007Z,30.59
2023-04-03T09:11:19.770Z,30.98
2023-04-03T09:13:57.878Z,30.87
2023-04-03T09:16:30.418Z,30.93
2023-04-03T09:19:18.790Z,31.37
2023-04-03T09:21:45.681Z,31.21
2023-04-03T09:24:14.598Z,31.68
2023-04-03T09:27:11.140Z,31.73
2023-04-03T09:29:40.512Z,31.74
2023-04-03T09:32:29.341Z,31.92
2023-04-03T09:34:59.695Z,31.95
2023-04-03T09:37:49.490Z,32.07
2023-04-03T09:40:36.719Z,31.96
2023-04-03T09:43:23.343Z,32.04
2023-04-03T09:45:50.976Z,31.96
2023-04-03T09:48:21.904Z,32.23
2023-04-03T09:51:11.812Z,31.98
2023-04-03T09:53:40.099Z,32.12
2023-04-03T09:56:18.904Z,32.10
2023-04-03T09:58:50.925Z,32.04
2023-04-03T10:01:33.802Z,32.09
2023-04-03T10:04:19.602Z,32.00
2023-04-03T10:06:53.813Z,32.15
2023-04-03T10:09:25.015Z,32.08
2023-04-03T10:12:13.245Z,31.93
2023-04-03T10:14:41.563Z,31.63
2023-04-03T10:17:35.739Z,30.98
2023-04-03T10:20:22.303Z,30.79
2023-04-03T10:23:12.132Z,30.84
2023-04-03T10:25:50.150Z,31.14
2023-04-03T10:28:33.164Z,31.05
2023-04-03T10:31:08.463Z,31.14
2023-04-03T10:33:54.361Z,31.34
2023-04-03T10:36:26.589Z,31.21
2023-04-03T10:39:04.359Z,31.43
2023-04-03T10:42:17.621Z,31.29
2023-04-03T10:44:56.585Z,31.35
2023-04-03T10:47:38.035Z,31.27
2023-04-03T10:50:14.257Z,31.37
2023-04-03T10:52:43.965Z,31.16
2023-04-03T10:55:16.652Z,31.11
2023-04-03T10:57:43.620Z,31.08
2023-04-03T11:00:21.153Z,31.13
2023-04-03T11:03:04.968Z,31.39
2023-04-03T11:05:44.844Z,31.22
2023-04-03T11:08:35.347Z,31.11
2023-04-03T11:11:07.021Z,31.16
2023-04-03T11:13:43.687Z,31.46
2023-04-03T11:16:10.485Z,31.08
2023-04-03T11:18:49.985Z,31.07
2023-04-03T11:21:42.062Z,31.03
2023-04-03T11:24:17.024Z,31.05
2023-04-03T11:26:43.630Z,31.18
2023-04-03T11:29:20.734Z,31.12
2023-04-03T11:32:19.468Z,30.94
2023-04-03T11:34:47.311Z,30.82
2023-04-03T11:37:24.252Z,30.83
2023-04-03T11:39:57.684Z,30.63
2023-04-03T11:42:59.882Z,30.74
2023-04-03T11:45:26.371Z,30.66
2023-04-03T11:47:57.398Z,30.84
2023-04-03T11:50:36.201Z,30.69
2023-04-03T11:53:07.363Z,30.45
2023-04-03T11:55:34.013Z,30.75
2023-04-03T11:58:00.679Z,30.56
2023-04-03T12:00:50.754Z,30.54
2023-04-03T12:03:26.707Z,30.62
2023-04-03T12:06:05.863Z,30.39
2023-04-03T12:08:44.485Z,30.34
2023-04-03T12:11:11.408Z,30.27
2023-04-03T12:13:50.411Z,30.02
2023-04-03T12:16:27.426Z,29.93
2023-04-03T12:18:54.087Z,29.92
2023-04-03T12:21:30.466Z,30.20
2023-04-03T12:24:13.727Z,29.93
2023-04-03T12:26:47.982Z,29.92
2023-04-03T12:29:22.787Z,29.75
2023-04-03T12:32:04.897Z,29.94
2023-04-03T12:34:34.349Z,29.85
2023-04-03T12:37:13.720Z,29.97
2023-04-03T12:39:52.087Z,29.87
2023-04-03T12:42:43.664Z,29.56
2023-04-03T12:45:16.204Z,29.73
2023-04-03T12:47:43.601Z,25.04
2023-04-03T12:50:31.374Z,23.48
2023-04-03T12:53:03.841Z,23.80
2023-04-03T12:55:30.610Z,24.89
2023-04-03T12:57:57.279Z,26.53
2023-04-03T13:00:33.286Z,26.73
2023-04-03T13:03:00.925Z,29.31
2023-04-03T13:05:27.706Z,29.32
2023-04-03T13:07:59.149Z,29.42
2023-04-03T13:10:25.946Z,28.64
2023-04-03T13:12:57.860Z,29.26
2023-04-03T13:15:30.306Z,28.92
2023-04-03T13:17:57.595Z,30.35
2023-04-03T13:20:29.572Z,29.35
2023-04-03T13:23:06.662Z,28.57
2023-04-03T13:25:34.921Z,28.57
2023-04-03T13:28:12.654Z,28.48
2023-04-03T13:30:41.322Z,28.61
2023-04-03T13:33:21.548Z,28.49
2023-04-03T13:35:48.268Z,28.64
2023-04-03T13:38:17.809Z,28.99
2023-04-03T13:40:54.942Z,28.83
2023-04-03T13:43:26.429Z,28.89
2023-04-03T13:46:02.474Z,28.63
2023-04-03T13:48:35.391Z,28.85
2023-04-03T13:51:16.021Z,28.91
2023-04-03T13:53:45.285Z,28.64
2023-04-03T13:56:27.495Z,28.98
2023-04-03T13:59:06.776Z,28.86
2023-04-03T14:01:56.152Z,28.97
2023-04-03T14:04:28.850Z,28.85
2023-04-03T14:06:55.659Z,28.95
2023-04-03T14:09:22.945Z,29.01
2023-04-03T14:11:51.661Z,28.89
2023-04-03T14:14:23.626Z,28.92
2023-04-03T14:16:56.483Z,29.05
2023-04-03T14:19:23.026Z,28.81
2023-04-03T14:21:51.720Z,29.01
2023-04-03T14:24:18.272Z,28.54
2023-04-03T14:26:45.003Z,28.50
2023-04-03T14:29:12.282Z,28.34
2023-04-03T14:31:39.222Z,27.97
2023-04-03T14:34:05.941Z,27.41
2023-04-03T14:36:32.894Z,26.71
2023-04-03T14:39:00.282Z,27.17
2023-04-03T14:41:30.098Z,26.97
2023-04-03T14:43:56.739Z,26.53
2023-04-03T14:46:48.230Z,26.89
2023-04-03T14:49:22.392Z,27.00
2023-04-03T14:51:48.992Z,26.79
2023-04-03T14:54:17.600Z,27.17
2023-04-03T14:56:45.662Z,27.12
2023-04-03T14:59:12.958Z,27.22
2023-04-03T15:01:42.395Z,27.27
2023-04-03T15:04:20.164Z,27.04
2023-04-03T15:06:47.327Z,27.11
2023-04-03T15:09:25.911Z,26.98
2023-04-03T15:11:53.075Z,27.19
2023-04-03T15:14:29.903Z,27.18
2023-04-03T15:17:07.210Z,26.73
2023-04-03T15:19:38.886Z,26.84
2023-04-03T15:22:05.591Z,27.18
2023-04-03T15:24:32.215Z,26.86
2023-04-03T15:26:58.787Z,26.72
2023-04-03T15:29:25.357Z,25.41
2023-04-03T15:31:54.572Z,24.67
2023-04-03T15:34:22.780Z,25.04
2023-04-03T15:36:51.089Z,25.63
2023-04-03T15:39:17.848Z,25.59
2023-04-03T15:41:45.211Z,25.43
2023-04-03T15:44:13.119Z,25.36
2023-04-03T15:46:39.923Z,25.90
2023-04-03T15:49:06.700Z,26.06
2023-04-03T15:51:33.343Z,26.10
2023-04-03T15:53:59.982Z,27.20
2023-04-03T15:56:26.580Z,26.98
2023-04-03T15:58:53.107Z,29.21
2023-04-03T16:01:19.762Z,29.90
2023-04-03T16:03:46.667Z,30.02
2023-04-03T16:06:14.789Z,28.82
2023-04-03T16:08:41.582Z,28.94
2023-04-03T16:11:08.220Z,28.67
2023-04-03T16:13:36.013Z,28.09
2023-04-03T16:16:02.876Z,28.35
2023-04-03T16:18:29.653Z,28.51
2023-04-03T16:20:56.459Z,28.27
2023-04-03T16:23:23.441Z,28.16
2023-04-03T16:25:50.760Z,28.42
2023-04-03T16:28:18.337Z,29.04
2023-04-03T16:30:45.717Z,30.70
2023-04-03T16:33:12.491Z,30.28
2023-04-03T16:35:39.590Z,32.22
2023-04-03T16:38:06.534Z,30.21
2023-04-03T16:40:34.765Z,30.87
2023-04-03T16:43:04.306Z,30.61
2023-04-03T16:45:31.091Z,30.80
2023-04-03T16:47:57.811Z,30.68
2023-04-03T16:50:24.571Z,30.57
2023-04-03T16:52:51.307Z,30.35
2023-04-03T16:55:18.153Z,29.60
2023-04-03T16:57:44.857Z,30.03
2023-04-03T17:00:12.035Z,30.08
2023-04-03T17:02:40.347Z,30.30
2023-04-03T17:05:07.714Z,32.70
2023-04-03T17:07:34.338Z,31.06
2023-04-03T17:10:01.094Z,30.75
2023-04-03T17:12:27.764Z,30.67
2023-04-03T17:14:54.289Z,30.18
2023-04-03T17:17:22.841Z,27.19
2023-04-03T17:19:49.611Z,23.54
2023-04-03T17:22:17.588Z,22.96
2023-04-03T17:24:44.867Z,24.20
2023-04-03T17:27:11.664Z,24.39
2023-04-03T17:29:38.357Z,24.80
2023-04-03T17:32:05.112Z,24.94
2023-04-03T17:34:33.580Z,24.97
2023-04-03T17:37:00.329Z,25.44
2023-04-03T17:39:27.083Z,25.86
2023-04-03T17:41:55.045Z,25.81
2023-04-03T17:44:22.174Z,26.13
2023-04-03T17:46:51.825Z,26.21
2023-04-03T17:49:22.500Z,26.45
2023-04-03T17:51:49.582Z,26.66
2023-04-03T17:54:16.970Z,26.94
2023-04-03T17:56:48.069Z,26.67
2023-04-03T17:59:16.598Z,27.15
2023-04-03T18:01:44.457Z,27.00
2023-04-03T18:04:11.261Z,27.52
2023-04-03T18:06:45.752Z,27.41
2023-04-03T18:09:17.751Z,27.34
2023-04-03T18:11:44.917Z,27.58
2023-04-03T18:14:12.105Z,27.80
2023-04-03T18:16:38.980Z,27.78
2023-04-03T18:19:21.928Z,27.63
2023-04-03T18:21:52.306Z,27.81
2023-04-03T18:24:19.604Z,28.04
2023-04-03T18:26:47.595Z,28.00
2023-04-03T18:29:14.299Z,28.03
2023-04-03T18:31:41.821Z,27.95
2023-04-03T18:34:08.466Z,28.24
2023-04-03T18:36:35.789Z,28.23
2023-04-03T18:39:03.814Z,28.06
2023-04-03T18:41:31.986Z,28.35
2023-04-03T18:43:59.632Z,28.20
2023-04-03T18:46:28.506Z,28.47
2023-04-03T18:48:56.296Z,28.53
2023-04-03T18:51:23.580Z,28.41
2023-04-03T18:53:50.501Z,28.27
2023-04-03T18:56:17.362Z,28.28
2023-04-03T18:58:44.207Z,28.71
2023-04-03T19:01:11.070Z,28.60
2023-04-03T19:03:38.007Z,28.75
2023-04-03T19:06:05.189Z,28.72
2023-04-03T19:08:31.860Z,28.48
2023-04-03T19:10:58.644Z,28.48
2023-04-03T19:13:31.043Z,28.65
2023-04-03T19:15:59.286Z,28.40
2023-04-03T19:18:27.673Z,28.77
2023-04-03T19:20:54.751Z,28.75
2023-04-03T19:23:26.113Z,28.89
2023-04-03T19:26:00.894Z,28.51
2023-04-03T19:28:27.674Z,28.65
2023-04-03T19:30:58.149Z,28.81
2023-04-03T19:33:25.130Z,28.84
2023-04-03T19:35:52.009Z,28.85
2023-04-03T19:38:18.744Z,28.89
2023-04-03T19:40:45.678Z,28.63
2023-04-03T19:43:13.216Z,28.99
2023-04-03T19:45:40.466Z,28.96
2023-04-03T19:48:07.462Z,28.99
2023-04-03T19:50:34.305Z,28.90
2023-04-03T19:53:01.768Z,28.91
2023-04-03T19:55:31.788Z,28.78
2023-04-03T19:57:59.693Z,29.31
2023-04-03T20:00:26.696Z,29.34
2023-04-03T20:02:53.489Z,29.35
2023-04-03T20:05:20.905Z,29.33
2023-04-03T20:07:48.640Z,29.24
2023-04-03T20:10:15.630Z,29.29
2023-04-03T20:12:42.775Z,29.28
2023-04-03T20:15:10.419Z,29.28
2023-04-03T20:17:37.111Z,29.25
2023-04-03T20:20:04.487Z,29.37
2023-04-03T20:22:32.302Z,29.21
2023-04-03T20:25:05.986Z,29.44
2023-04-03T20:27:33.757Z,29.36
2023-04-03T20:30:02.980Z,29.43
2023-04-03T20:32:30.457Z,29.28
2023-04-03T20:35:03.288Z,29.36
2023-04-03T20:37:30.547Z,29.50
2023-04-03T20:39:57.212Z,29.25
2023-04-03T20:42:23.775Z,29.33
2023-04-03T20:44:50.886Z,29.73
2023-04-03T20:47:17.588Z,29.44
2023-04-03T20:49:45.097Z,29.80
2023-04-03T20:52:11.836Z,29.86
2023-04-03T20:54:39.546Z,29.61
2023-04-03T20:57:06.209Z,29.46
2023-04-03T20:59:34.047Z,29.57
2023-04-03T21:02:00.925Z,29.80
2023-04-03T21:04:45.207Z,29.57
2023-04-03T21:07:49.458Z,29.71
2023-04-03T21:10:54.108Z,29.71
2023-04-03T21:13:57.947Z,29.80
2023-04-03T21:16:24.599Z,29.97
2023-04-03T21:18:59.344Z,29.81
2023-04-03T21:21:27.986Z,29.92
2023-04-03T21:23:54.887Z,30.07
2023-04-03T21:26:21.804Z,30.20
2023-04-03T21:28:50.268Z,29.97
2023-04-03T21:31:16.984Z,30.03
2023-04-03T21:33:43.728Z,29.93
2023-04-03T21:36:10.409Z,30.23
2023-04-03T21:38:37.491Z,30.56
2023-04-03T21:41:04.187Z,30.10
2023-04-03T21:43:30.913Z,30.28
2023-04-03T21:45:58.546Z,30.30
2023-04-03T21:48:25.827Z,30.29
2023-04-03T21:50:53.720Z,30.33
2023-04-03T21:53:23.654Z,30.38
2023-04-03T21:55:54.343Z,30.50
2023-04-03T21:58:21.241Z,30.51
2023-04-03T22:00:47.889Z,30.55
2023-04-03T22:03:19.989Z,30.48
2023-04-03T22:05:46.641Z,30.39
2023-04-03T22:08:13.916Z,30.30
2023-04-03T22:10:41.496Z,30.21
2023-04-03T22:13:08.413Z,30.58
2023-04-03T22:15:43.868Z,30.49
2023-04-03T22:18:10.938Z,30.63
2023-04-03T22:20:37.945Z,30.66
2023-04-03T22:23:05.812Z,30.30
2023-04-03T22:25:32.874Z,30.38
2023-04-03T22:27:59.437Z,30.29
2023-04-03T22:30:26.257Z,30.23
2023-04-03T22:32:52.913Z,30.34
2023-04-03T22:35:19.559Z,30.52
2023-04-03T22:37:46.107Z,30.61
2023-04-03T22:40:13.596Z,30.65
2023-04-03T22:42:40.210Z,30.50
2023-04-03T22:45:07.317Z,30.51
2023-04-03T22:47:33.852Z,30.48
2023-04-03T22:50:00.410Z,30.51
2023-04-03T22:52:26.968Z,30.47
2023-04-03T22:54:53.539Z,30.44
2023-04-03T22:57:20.490Z,30.48
2023-04-03T22:59:47.192Z,30.57
2023-04-03T23:02:13.742Z,30.57
2023-04-03T23:04:40.454Z,30.61
2023-04-03T23:07:07.227Z,30.68
2023-04-03T23:09:33.824Z,30.77
2023-04-03T23:12:00.377Z,30.62
2023-04-03T23:14:26.945Z,30.45
2023-04-03T23:16:53.545Z,30.53
2023-04-03T23:19:20.884Z,30.49
2023-04-03T23:21:48.003Z,30.57
2023-04-03T23:24:15.878Z,30.46
2023-04-03T23:26:42.425Z,30.55
2023-04-03T23:29:08.995Z,30.60
2023-04-03T23:31:35.610Z,30.63
2023-04-03T23:34:02.203Z,30.14
2023-04-03T23:36:28.823Z,30.53
2023-04-03T23:38:58.514Z,30.69
2023-04-03T23:41:25.171Z,30.74
2023-04-03T23:43:51.926Z,30.77
2023-04-03T23:46:19.718Z,30.65
2023-04-03T23:48:46.377Z,30.58
2023-04-03T23:51:12.945Z,30.57
2023-04-03T23:53:39.553Z,30.46
2023-04-03T23:56:11.368Z,30.69
2023-04-03T23:58:38.189Z,30.78
